sensor_id;sensor_type;location;lat;lon;timestamp;temperature;humidity
13944;DHT22;7044;53.286;8.534;2022-07-19T00:00:00;18.30;1.00
13944;DHT22;7044;53.286;8.534;2022-07-19T00:02:29;18.40;1.00
13944;DHT22;7044;53.286;8.534;2022-07-19T00:04:55;18.70;1.00
13944;DHT22;7044;53.286;8.534;2022-07-19T00:07:22;18.30;1.00
13944;DHT22;7044;53.286;8.534;2022-07-19T00:09:49;18.20;1.00
13944;DHT22;7044;53.286;8.534;2022-07-19T00:12:17;18.20;1.00
13944;DHT22;7044;53.286;8.534;2022-07-19T00:14:44;18.10;1.00
13944;DHT22;7044;53.286;8.534;2022-07-19T00:17:11;18.00;1.00
13944;DHT22;7044;53.286;8.534;2022-07-19T00:19:38;17.70;1.00
13944;DHT22;7044;53.286;8.534;2022-07-19T00:22:05;18.00;1.00
13944;DHT22;7044;53.286;8.534;2022-07-19T00:24:32;18.00;1.00
13944;DHT22;7044;53.286;8.534;2022-07-19T00:26:58;17.90;1.00
13944;DHT22;7044;53.286;8.534;2022-07-19T00:29:27;17.50;1.00
13944;DHT22;7044;53.286;8.534;2022-07-19T00:34:20;17.70;1.00
13944;DHT22;7044;53.286;8.534;2022-07-19T00:36:47;17.70;1.00
13944;DHT22;7044;53.286;8.534;2022-07-19T00:39:14;18.40;1.00
13944;DHT22;7044;53.286;8.534;2022-07-19T00:41:42;17.70;1.00
13944;DHT22;7044;53.286;8.534;2022-07-19T00:44:10;17.80;1.00
13944;DHT22;7044;53.286;8.534;2022-07-19T00:46:38;17.90;1.00
13944;DHT22;7044;53.286;8.534;2022-07-19T00:49:05;17.80;1.00
13944;DHT22;7044;53.286;8.534;2022-07-19T00:51:34;17.80;1.00
13944;DHT22;7044;53.286;8.534;2022-07-19T00:54:02;17.90;1.00
13944;DHT22;7044;53.286;8.534;2022-07-19T00:56:32;17.90;1.00
13944;DHT22;7044;53.286;8.534;2022-07-19T01:01:27;18.10;1.00
13944;DHT22;7044;53.286;8.534;2022-07-19T01:03:57;17.70;1.00
13944;DHT22;7044;53.286;8.534;2022-07-19T01:06:24;17.70;1.00
13944;DHT22;7044;53.286;8.534;2022-07-19T01:08:51;17.50;1.00
13944;DHT22;7044;53.286;8.534;2022-07-19T01:11:17;17.50;1.00
13944;DHT22;7044;53.286;8.534;2022-07-19T01:13:44;17.60;1.00
13944;DHT22;7044;53.286;8.534;2022-07-19T01:16:11;17.60;1.00
13944;DHT22;7044;53.286;8.534;2022-07-19T01:18:38;17.60;1.00
13944;DHT22;7044;53.286;8.534;2022-07-19T01:21:07;17.50;1.00
13944;DHT22;7044;53.286;8.534;2022-07-19T01:23:35;17.50;1.00
13944;DHT22;7044;53.286;8.534;2022-07-19T01:26:02;17.40;1.00
13944;DHT22;7044;53.286;8.534;2022-07-19T01:28:29;17.50;1.00
13944;DHT22;7044;53.286;8.534;2022-07-19T01:30:56;17.30;1.00
13944;DHT22;7044;53.286;8.534;2022-07-19T01:33:22;17.40;1.00
13944;DHT22;7044;53.286;8.534;2022-07-19T01:35:49;17.10;1.00
13944;DHT22;7044;53.286;8.534;2022-07-19T01:38:16;17.10;1.00
13944;DHT22;7044;53.286;8.534;2022-07-19T01:40:44;17.10;1.00
13944;DHT22;7044;53.286;8.534;2022-07-19T01:43:11;17.00;1.00
13944;DHT22;7044;53.286;8.534;2022-07-19T01:45:38;17.10;1.00
13944;DHT22;7044;53.286;8.534;2022-07-19T01:48:05;17.10;1.00
13944;DHT22;7044;53.286;8.534;2022-07-19T01:50:32;17.00;1.00
13944;DHT22;7044;53.286;8.534;2022-07-19T01:52:59;17.10;1.00
13944;DHT22;7044;53.286;8.534;2022-07-19T01:55:25;16.10;1.00
13944;DHT22;7044;53.286;8.534;2022-07-19T01:57:53;17.00;1.00
13944;DHT22;7044;53.286;8.534;2022-07-19T02:00:20;17.10;1.00
13944;DHT22;7044;53.286;8.534;2022-07-19T02:02:47;17.10;1.00
13944;DHT22;7044;53.286;8.534;2022-07-19T02:05:14;17.20;1.00
13944;DHT22;7044;53.286;8.534;2022-07-19T02:07:41;18.40;1.00
13944;DHT22;7044;53.286;8.534;2022-07-19T02:10:08;17.00;1.00
13944;DHT22;7044;53.286;8.534;2022-07-19T02:12:35;17.10;1.00
13944;DHT22;7044;53.286;8.534;2022-07-19T02:15:05;16.10;1.00
13944;DHT22;7044;53.286;8.534;2022-07-19T02:19:59;17.00;1.00
13944;DHT22;7044;53.286;8.534;2022-07-19T02:22:26;16.70;1.00
13944;DHT22;7044;53.286;8.534;2022-07-19T02:24:53;17.00;1.00
13944;DHT22;7044;53.286;8.534;2022-07-19T02:27:20;16.90;1.00
13944;DHT22;7044;53.286;8.534;2022-07-19T02:29:47;17.00;1.00
13944;DHT22;7044;53.286;8.534;2022-07-19T02:32:15;17.00;1.00
13944;DHT22;7044;53.286;8.534;2022-07-19T02:34:42;17.00;1.00
13944;DHT22;7044;53.286;8.534;2022-07-19T02:37:09;17.10;1.00
13944;DHT22;7044;53.286;8.534;2022-07-19T02:39:36;16.90;1.00
13944;DHT22;7044;53.286;8.534;2022-07-19T02:42:03;17.10;1.00
13944;DHT22;7044;53.286;8.534;2022-07-19T02:44:30;17.10;1.00
13944;DHT22;7044;53.286;8.534;2022-07-19T02:46:56;17.00;1.00
13944;DHT22;7044;53.286;8.534;2022-07-19T02:49:25;17.00;1.00
13944;DHT22;7044;53.286;8.534;2022-07-19T02:51:52;17.00;1.00
13944;DHT22;7044;53.286;8.534;2022-07-19T02:54:18;15.60;1.00
13944;DHT22;7044;53.286;8.534;2022-07-19T02:56:45;17.10;1.00
13944;DHT22;7044;53.286;8.534;2022-07-19T02:59:12;17.00;1.00
13944;DHT22;7044;53.286;8.534;2022-07-19T03:01:39;17.00;1.00
13944;DHT22;7044;53.286;8.534;2022-07-19T03:04:06;16.40;1.00
13944;DHT22;7044;53.286;8.534;2022-07-19T03:06:34;16.80;1.00
13944;DHT22;7044;53.286;8.534;2022-07-19T03:09:01;17.00;1.00
13944;DHT22;7044;53.286;8.534;2022-07-19T03:11:27;16.70;1.00
13944;DHT22;7044;53.286;8.534;2022-07-19T03:13:54;16.70;1.00
13944;DHT22;7044;53.286;8.534;2022-07-19T03:16:21;16.70;1.00
13944;DHT22;7044;53.286;8.534;2022-07-19T03:18:48;16.60;1.00
13944;DHT22;7044;53.286;8.534;2022-07-19T03:21:15;16.70;1.00
13944;DHT22;7044;53.286;8.534;2022-07-19T03:23:43;16.60;1.00
13944;DHT22;7044;53.286;8.534;2022-07-19T03:26:10;16.60;1.00
13944;DHT22;7044;53.286;8.534;2022-07-19T03:28:37;16.60;1.00
13944;DHT22;7044;53.286;8.534;2022-07-19T03:31:04;16.50;1.00
13944;DHT22;7044;53.286;8.534;2022-07-19T03:33:31;17.20;1.00
13944;DHT22;7044;53.286;8.534;2022-07-19T03:35:58;16.20;1.00
13944;DHT22;7044;53.286;8.534;2022-07-19T03:38:25;16.40;1.00
13944;DHT22;7044;53.286;8.534;2022-07-19T03:40:53;16.50;1.00
13944;DHT22;7044;53.286;8.534;2022-07-19T03:43:20;16.50;1.00
13944;DHT22;7044;53.286;8.534;2022-07-19T03:45:48;16.60;1.00
13944;DHT22;7044;53.286;8.534;2022-07-19T03:48:15;16.50;1.00
13944;DHT22;7044;53.286;8.534;2022-07-19T03:50:43;16.50;1.00
13944;DHT22;7044;53.286;8.534;2022-07-19T03:53:10;16.50;1.00
13944;DHT22;7044;53.286;8.534;2022-07-19T03:58:06;16.80;8.60
13944;DHT22;7044;53.286;8.534;2022-07-19T04:00:32;16.50;6.00
13944;DHT22;7044;53.286;8.534;2022-07-19T04:02:59;16.60;8.20
13944;DHT22;7044;53.286;8.534;2022-07-19T04:05:26;16.60;9.70
13944;DHT22;7044;53.286;8.534;2022-07-19T04:07:56;16.70;9.30
13944;DHT22;7044;53.286;8.534;2022-07-19T04:10:22;16.60;10.80
13944;DHT22;7044;53.286;8.534;2022-07-19T04:12:49;16.70;12.40
13944;DHT22;7044;53.286;8.534;2022-07-19T04:15:17;16.60;7.70
13944;DHT22;7044;53.286;8.534;2022-07-19T04:17:44;16.60;4.90
13944;DHT22;7044;53.286;8.534;2022-07-19T04:20:12;16.70;2.10
13944;DHT22;7044;53.286;8.534;2022-07-19T04:22:38;16.70;1.00
13944;DHT22;7044;53.286;8.534;2022-07-19T04:25:06;16.80;1.00
13944;DHT22;7044;53.286;8.534;2022-07-19T04:27:33;16.70;1.00
13944;DHT22;7044;53.286;8.534;2022-07-19T04:30:00;19.10;1.00
13944;DHT22;7044;53.286;8.534;2022-07-19T04:32:28;16.70;1.00
13944;DHT22;7044;53.286;8.534;2022-07-19T04:34:55;16.70;1.00
13944;DHT22;7044;53.286;8.534;2022-07-19T04:37:22;16.80;1.00
13944;DHT22;7044;53.286;8.534;2022-07-19T04:39:50;16.80;1.00
13944;DHT22;7044;53.286;8.534;2022-07-19T04:44:44;16.90;1.00
13944;DHT22;7044;53.286;8.534;2022-07-19T04:47:11;17.00;1.00
13944;DHT22;7044;53.286;8.534;2022-07-19T04:49:39;17.40;1.00
13944;DHT22;7044;53.286;8.534;2022-07-19T04:52:06;17.10;1.00
13944;DHT22;7044;53.286;8.534;2022-07-19T04:54:33;17.20;1.00
13944;DHT22;7044;53.286;8.534;2022-07-19T04:59:27;17.40;1.00
13944;DHT22;7044;53.286;8.534;2022-07-19T05:01:54;17.70;1.00
13944;DHT22;7044;53.286;8.534;2022-07-19T05:04:21;17.50;1.00
13944;DHT22;7044;53.286;8.534;2022-07-19T05:06:49;17.50;1.00
13944;DHT22;7044;53.286;8.534;2022-07-19T05:11:49;17.70;1.00
13944;DHT22;7044;53.286;8.534;2022-07-19T05:14:16;17.60;1.00
13944;DHT22;7044;53.286;8.534;2022-07-19T05:16:43;17.70;1.00
13944;DHT22;7044;53.286;8.534;2022-07-19T05:19:10;17.90;1.00
13944;DHT22;7044;53.286;8.534;2022-07-19T05:21:37;18.00;1.00
13944;DHT22;7044;53.286;8.534;2022-07-19T05:24:05;18.00;1.00
13944;DHT22;7044;53.286;8.534;2022-07-19T05:26:32;18.40;1.00
13944;DHT22;7044;53.286;8.534;2022-07-19T05:31:26;18.30;1.00
13944;DHT22;7044;53.286;8.534;2022-07-19T05:33:53;18.40;1.00
13944;DHT22;7044;53.286;8.534;2022-07-19T05:36:19;18.50;1.00
13944;DHT22;7044;53.286;8.534;2022-07-19T05:38:46;18.60;1.00
13944;DHT22;7044;53.286;8.534;2022-07-19T05:41:15;18.80;1.00
13944;DHT22;7044;53.286;8.534;2022-07-19T05:43:42;19.10;1.00
13944;DHT22;7044;53.286;8.534;2022-07-19T05:46:09;19.20;1.00
13944;DHT22;7044;53.286;8.534;2022-07-19T05:48:36;19.40;1.00
13944;DHT22;7044;53.286;8.534;2022-07-19T05:51:03;19.40;1.00
13944;DHT22;7044;53.286;8.534;2022-07-19T05:53:30;19.40;1.00
13944;DHT22;7044;53.286;8.534;2022-07-19T05:55:57;19.30;99.90
13944;DHT22;7044;53.286;8.534;2022-07-19T05:58:25;19.40;99.90
13944;DHT22;7044;53.286;8.534;2022-07-19T06:00:52;19.20;99.90
13944;DHT22;7044;53.286;8.534;2022-07-19T06:03:36;19.40;99.90
13944;DHT22;7044;53.286;8.534;2022-07-19T06:08:31;19.30;99.90
13944;DHT22;7044;53.286;8.534;2022-07-19T06:10:58;19.50;99.90
13944;DHT22;7044;53.286;8.534;2022-07-19T06:13:26;19.50;99.90
13944;DHT22;7044;53.286;8.534;2022-07-19T06:15:53;19.50;99.90
13944;DHT22;7044;53.286;8.534;2022-07-19T06:18:20;20.40;99.90
13944;DHT22;7044;53.286;8.534;2022-07-19T06:20:47;20.10;99.90
13944;DHT22;7044;53.286;8.534;2022-07-19T06:23:14;19.70;99.90
13944;DHT22;7044;53.286;8.534;2022-07-19T06:25:41;19.60;99.90
13944;DHT22;7044;53.286;8.534;2022-07-19T06:28:08;19.90;99.90
13944;DHT22;7044;53.286;8.534;2022-07-19T06:30:36;20.00;99.90
13944;DHT22;7044;53.286;8.534;2022-07-19T06:33:03;20.00;99.90
13944;DHT22;7044;53.286;8.534;2022-07-19T06:35:30;20.30;99.90
13944;DHT22;7044;53.286;8.534;2022-07-19T06:37:57;20.10;99.90
13944;DHT22;7044;53.286;8.534;2022-07-19T06:42:51;20.40;99.90
13944;DHT22;7044;53.286;8.534;2022-07-19T06:45:18;21.70;99.90
13944;DHT22;7044;53.286;8.534;2022-07-19T06:47:46;20.50;1.00
13944;DHT22;7044;53.286;8.534;2022-07-19T06:50:13;20.50;1.00
13944;DHT22;7044;53.286;8.534;2022-07-19T06:52:40;20.60;1.00
13944;DHT22;7044;53.286;8.534;2022-07-19T06:55:07;20.60;1.00
13944;DHT22;7044;53.286;8.534;2022-07-19T07:00:02;21.00;1.00
13944;DHT22;7044;53.286;8.534;2022-07-19T07:02:30;21.00;1.00
13944;DHT22;7044;53.286;8.534;2022-07-19T07:04:58;21.00;1.00
13944;DHT22;7044;53.286;8.534;2022-07-19T07:07:25;20.90;99.90
13944;DHT22;7044;53.286;8.534;2022-07-19T07:09:52;19.10;99.90
13944;DHT22;7044;53.286;8.534;2022-07-19T07:12:19;21.60;92.70
13944;DHT22;7044;53.286;8.534;2022-07-19T07:14:45;21.80;1.00
13944;DHT22;7044;53.286;8.534;2022-07-19T07:17:12;21.40;99.90
13944;DHT22;7044;53.286;8.534;2022-07-19T07:19:39;21.60;27.90
13944;DHT22;7044;53.286;8.534;2022-07-19T07:22:07;21.60;99.90
13944;DHT22;7044;53.286;8.534;2022-07-19T07:24:34;21.70;1.00
13944;DHT22;7044;53.286;8.534;2022-07-19T07:27:01;22.00;1.00
13944;DHT22;7044;53.286;8.534;2022-07-19T07:29:28;22.00;10.80
13944;DHT22;7044;53.286;8.534;2022-07-19T07:31:55;22.50;99.90
13944;DHT22;7044;53.286;8.534;2022-07-19T07:34:22;22.30;99.90
13944;DHT22;7044;53.286;8.534;2022-07-19T07:36:49;22.40;1.00
13944;DHT22;7044;53.286;8.534;2022-07-19T07:39:17;22.40;1.00
13944;DHT22;7044;53.286;8.534;2022-07-19T07:41:44;22.50;1.00
13944;DHT22;7044;53.286;8.534;2022-07-19T07:44:10;22.50;1.00
13944;DHT22;7044;53.286;8.534;2022-07-19T07:46:37;25.40;99.90
13944;DHT22;7044;53.286;8.534;2022-07-19T07:49:04;22.50;99.90
13944;DHT22;7044;53.286;8.534;2022-07-19T07:51:31;22.50;99.90
13944;DHT22;7044;53.286;8.534;2022-07-19T07:53:58;22.60;99.90
13944;DHT22;7044;53.286;8.534;2022-07-19T07:56:27;22.80;1.00
13944;DHT22;7044;53.286;8.534;2022-07-19T07:58:54;22.90;1.00
13944;DHT22;7044;53.286;8.534;2022-07-19T08:01:21;23.10;1.00
13944;DHT22;7044;53.286;8.534;2022-07-19T08:03:47;25.00;1.00
13944;DHT22;7044;53.286;8.534;2022-07-19T08:06:14;23.10;1.00
13944;DHT22;7044;53.286;8.534;2022-07-19T08:08:42;23.10;1.00
13944;DHT22;7044;53.286;8.534;2022-07-19T08:11:08;23.10;1.00
13944;DHT22;7044;53.286;8.534;2022-07-19T08:13:37;23.10;1.00
13944;DHT22;7044;53.286;8.534;2022-07-19T08:16:04;23.10;99.90
13944;DHT22;7044;53.286;8.534;2022-07-19T08:18:32;23.40;99.90
13944;DHT22;7044;53.286;8.534;2022-07-19T08:20:59;23.20;99.90
13944;DHT22;7044;53.286;8.534;2022-07-19T08:23:26;23.20;99.90
13944;DHT22;7044;53.286;8.534;2022-07-19T08:25:53;23.30;99.90
13944;DHT22;7044;53.286;8.534;2022-07-19T08:28:19;23.50;97.70
13944;DHT22;7044;53.286;8.534;2022-07-19T08:30:48;23.30;1.00
13944;DHT22;7044;53.286;8.534;2022-07-19T08:33:14;23.40;1.00
13944;DHT22;7044;53.286;8.534;2022-07-19T08:35:41;23.20;1.00
13944;DHT22;7044;53.286;8.534;2022-07-19T08:38:08;23.60;1.00
13944;DHT22;7044;53.286;8.534;2022-07-19T08:40:35;23.60;1.00
13944;DHT22;7044;53.286;8.534;2022-07-19T08:43:05;23.70;1.00
13944;DHT22;7044;53.286;8.534;2022-07-19T08:45:32;23.90;1.00
13944;DHT22;7044;53.286;8.534;2022-07-19T08:48:01;24.10;1.00
13944;DHT22;7044;53.286;8.534;2022-07-19T08:50:29;24.10;1.00
13944;DHT22;7044;53.286;8.534;2022-07-19T08:52:56;24.10;1.00
13944;DHT22;7044;53.286;8.534;2022-07-19T08:55:24;24.30;1.00
13944;DHT22;7044;53.286;8.534;2022-07-19T08:57:51;24.20;1.00
13944;DHT22;7044;53.286;8.534;2022-07-19T09:00:24;24.20;99.90
13944;DHT22;7044;53.286;8.534;2022-07-19T09:02:53;24.30;99.90
13944;DHT22;7044;53.286;8.534;2022-07-19T09:08:08;24.50;99.90
13944;DHT22;7044;53.286;8.534;2022-07-19T09:10:36;24.60;99.90
13944;DHT22;7044;53.286;8.534;2022-07-19T09:13:06;24.70;99.90
13944;DHT22;7044;53.286;8.534;2022-07-19T09:15:47;24.70;99.90
13944;DHT22;7044;53.286;8.534;2022-07-19T09:18:18;24.90;99.90
13944;DHT22;7044;53.286;8.534;2022-07-19T09:20:47;25.00;99.90
13944;DHT22;7044;53.286;8.534;2022-07-19T09:23:15;25.20;99.90
13944;DHT22;7044;53.286;8.534;2022-07-19T09:25:44;25.40;99.90
13944;DHT22;7044;53.286;8.534;2022-07-19T09:30:41;25.60;99.90
13944;DHT22;7044;53.286;8.534;2022-07-19T09:33:13;25.50;99.90
13944;DHT22;7044;53.286;8.534;2022-07-19T09:35:43;25.70;67.30
13944;DHT22;7044;53.286;8.534;2022-07-19T09:38:16;25.70;20.70
13944;DHT22;7044;53.286;8.534;2022-07-19T09:40:43;25.80;1.00
13944;DHT22;7044;53.286;8.534;2022-07-19T09:43:10;25.00;90.90
13944;DHT22;7044;53.286;8.534;2022-07-19T09:45:37;25.90;1.00
13944;DHT22;7044;53.286;8.534;2022-07-19T09:48:04;26.10;1.00
13944;DHT22;7044;53.286;8.534;2022-07-19T09:50:31;26.10;1.00
13944;DHT22;7044;53.286;8.534;2022-07-19T09:53:00;26.20;1.00
13944;DHT22;7044;53.286;8.534;2022-07-19T09:55:29;26.20;1.00
13944;DHT22;7044;53.286;8.534;2022-07-19T09:57:57;29.10;1.00
13944;DHT22;7044;53.286;8.534;2022-07-19T10:00:25;26.30;1.00
13944;DHT22;7044;53.286;8.534;2022-07-19T10:02:54;26.40;1.00
13944;DHT22;7044;53.286;8.534;2022-07-19T10:05:22;26.50;1.00
13944;DHT22;7044;53.286;8.534;2022-07-19T10:07:50;26.70;1.00
13944;DHT22;7044;53.286;8.534;2022-07-19T10:10:18;26.70;1.00
13944;DHT22;7044;53.286;8.534;2022-07-19T10:12:48;26.80;1.00
13944;DHT22;7044;53.286;8.534;2022-07-19T10:15:17;26.90;1.00
13944;DHT22;7044;53.286;8.534;2022-07-19T10:17:54;28.40;1.00
13944;DHT22;7044;53.286;8.534;2022-07-19T10:20:25;27.30;1.00
13944;DHT22;7044;53.286;8.534;2022-07-19T10:22:53;27.40;1.00
13944;DHT22;7044;53.286;8.534;2022-07-19T10:25:22;27.20;1.00
13944;DHT22;7044;53.286;8.534;2022-07-19T10:27:52;27.30;1.00
13944;DHT22;7044;53.286;8.534;2022-07-19T10:30:23;27.40;1.00
13944;DHT22;7044;53.286;8.534;2022-07-19T10:32:54;27.40;1.00
13944;DHT22;7044;53.286;8.534;2022-07-19T10:35:23;27.50;1.00
13944;DHT22;7044;53.286;8.534;2022-07-19T10:37:54;26.40;1.00
13944;DHT22;7044;53.286;8.534;2022-07-19T10:40:38;27.60;1.00
13944;DHT22;7044;53.286;8.534;2022-07-19T10:43:09;27.60;1.00
13944;DHT22;7044;53.286;8.534;2022-07-19T10:45:37;27.70;1.00
13944;DHT22;7044;53.286;8.534;2022-07-19T10:48:07;27.80;1.00
13944;DHT22;7044;53.286;8.534;2022-07-19T10:50:59;27.90;1.00
13944;DHT22;7044;53.286;8.534;2022-07-19T10:56:55;27.90;1.00
13944;DHT22;7044;53.286;8.534;2022-07-19T10:59:39;28.00;1.00
13944;DHT22;7044;53.286;8.534;2022-07-19T11:02:07;28.10;1.00
13944;DHT22;7044;53.286;8.534;2022-07-19T11:04:47;28.40;1.00
13944;DHT22;7044;53.286;8.534;2022-07-19T11:07:17;28.10;1.00
13944;DHT22;7044;53.286;8.534;2022-07-19T11:09:52;28.20;1.00
13944;DHT22;7044;53.286;8.534;2022-07-19T11:12:34;28.20;1.00
13944;DHT22;7044;53.286;8.534;2022-07-19T11:15:08;28.30;1.00
13944;DHT22;7044;53.286;8.534;2022-07-19T11:20:08;28.30;1.00
13944;DHT22;7044;53.286;8.534;2022-07-19T11:22:38;28.40;1.00
13944;DHT22;7044;53.286;8.534;2022-07-19T11:25:07;28.30;1.00
13944;DHT22;7044;53.286;8.534;2022-07-19T11:27:34;24.30;1.00
13944;DHT22;7044;53.286;8.534;2022-07-19T11:30:03;29.90;1.00
13944;DHT22;7044;53.286;8.534;2022-07-19T11:32:32;28.60;1.00
13944;DHT22;7044;53.286;8.534;2022-07-19T11:35:01;28.60;1.00
13944;DHT22;7044;53.286;8.534;2022-07-19T11:37:33;28.70;1.00
13944;DHT22;7044;53.286;8.534;2022-07-19T11:40:00;28.70;1.00
13944;DHT22;7044;53.286;8.534;2022-07-19T11:42:30;28.70;1.00
13944;DHT22;7044;53.286;8.534;2022-07-19T11:44:57;28.80;1.00
13944;DHT22;7044;53.286;8.534;2022-07-19T11:47:24;28.90;1.00
13944;DHT22;7044;53.286;8.534;2022-07-19T11:49:53;28.90;1.00
13944;DHT22;7044;53.286;8.534;2022-07-19T11:52:20;30.50;1.00
13944;DHT22;7044;53.286;8.534;2022-07-19T11:55:05;29.00;1.00
13944;DHT22;7044;53.286;8.534;2022-07-19T11:57:32;29.30;1.00
13944;DHT22;7044;53.286;8.534;2022-07-19T11:59:59;28.90;1.00
13944;DHT22;7044;53.286;8.534;2022-07-19T12:02:26;29.00;1.00
13944;DHT22;7044;53.286;8.534;2022-07-19T12:04:54;29.00;1.00
13944;DHT22;7044;53.286;8.534;2022-07-19T12:09:48;29.00;1.00
13944;DHT22;7044;53.286;8.534;2022-07-19T12:12:16;29.00;1.00
13944;DHT22;7044;53.286;8.534;2022-07-19T12:14:43;29.10;1.00
13944;DHT22;7044;53.286;8.534;2022-07-19T12:17:12;29.10;1.00
13944;DHT22;7044;53.286;8.534;2022-07-19T12:19:39;29.10;1.00
13944;DHT22;7044;53.286;8.534;2022-07-19T12:22:25;29.10;1.00
13944;DHT22;7044;53.286;8.534;2022-07-19T12:24:52;29.20;1.00
13944;DHT22;7044;53.286;8.534;2022-07-19T12:27:19;29.20;1.00
13944;DHT22;7044;53.286;8.534;2022-07-19T12:29:47;29.30;1.00
13944;DHT22;7044;53.286;8.534;2022-07-19T12:32:26;29.30;1.00
13944;DHT22;7044;53.286;8.534;2022-07-19T12:34:57;29.40;1.00
13944;DHT22;7044;53.286;8.534;2022-07-19T12:37:27;29.40;1.00
13944;DHT22;7044;53.286;8.534;2022-07-19T12:40:03;29.50;1.00
13944;DHT22;7044;53.286;8.534;2022-07-19T12:42:41;29.50;1.00
13944;DHT22;7044;53.286;8.534;2022-07-19T12:45:11;29.50;1.00
13944;DHT22;7044;53.286;8.534;2022-07-19T12:50:06;29.50;1.00
13944;DHT22;7044;53.286;8.534;2022-07-19T12:52:34;29.60;1.00
13944;DHT22;7044;53.286;8.534;2022-07-19T12:55:01;29.70;1.00
13944;DHT22;7044;53.286;8.534;2022-07-19T12:57:28;29.80;1.00
13944;DHT22;7044;53.286;8.534;2022-07-19T12:59:55;29.80;1.00
13944;DHT22;7044;53.286;8.534;2022-07-19T13:02:22;29.90;1.00
13944;DHT22;7044;53.286;8.534;2022-07-19T13:04:49;30.00;1.00
13944;DHT22;7044;53.286;8.534;2022-07-19T13:07:15;29.90;1.00
13944;DHT22;7044;53.286;8.534;2022-07-19T13:09:43;30.00;1.00
13944;DHT22;7044;53.286;8.534;2022-07-19T13:12:10;30.00;1.00
13944;DHT22;7044;53.286;8.534;2022-07-19T13:14:37;30.20;1.00
13944;DHT22;7044;53.286;8.534;2022-07-19T13:17:05;30.10;1.00
13944;DHT22;7044;53.286;8.534;2022-07-19T13:19:36;30.10;1.00
13944;DHT22;7044;53.286;8.534;2022-07-19T13:22:02;30.70;1.00
13944;DHT22;7044;53.286;8.534;2022-07-19T13:24:29;30.20;1.00
13944;DHT22;7044;53.286;8.534;2022-07-19T13:26:58;30.20;1.00
13944;DHT22;7044;53.286;8.534;2022-07-19T13:29:25;30.30;1.00
13944;DHT22;7044;53.286;8.534;2022-07-19T13:31:52;30.20;1.00
13944;DHT22;7044;53.286;8.534;2022-07-19T13:34:19;30.30;1.00
13944;DHT22;7044;53.286;8.534;2022-07-19T13:36:46;30.30;1.00
13944;DHT22;7044;53.286;8.534;2022-07-19T13:39:15;30.30;1.00
13944;DHT22;7044;53.286;8.534;2022-07-19T13:41:42;30.30;1.00
13944;DHT22;7044;53.286;8.534;2022-07-19T13:44:10;30.40;1.00
13944;DHT22;7044;53.286;8.534;2022-07-19T13:49:04;30.40;1.00
13944;DHT22;7044;53.286;8.534;2022-07-19T13:51:31;30.40;1.00
13944;DHT22;7044;53.286;8.534;2022-07-19T13:53:58;30.50;1.00
13944;DHT22;7044;53.286;8.534;2022-07-19T13:56:25;30.50;1.00
13944;DHT22;7044;53.286;8.534;2022-07-19T13:58:52;30.70;1.00
13944;DHT22;7044;53.286;8.534;2022-07-19T14:01:20;31.20;1.00
13944;DHT22;7044;53.286;8.534;2022-07-19T14:03:47;30.90;1.00
13944;DHT22;7044;53.286;8.534;2022-07-19T14:06:14;30.80;1.00
13944;DHT22;7044;53.286;8.534;2022-07-19T14:08:41;29.50;1.00
13944;DHT22;7044;53.286;8.534;2022-07-19T14:11:09;31.00;1.00
13944;DHT22;7044;53.286;8.534;2022-07-19T14:13:36;31.00;1.00
13944;DHT22;7044;53.286;8.534;2022-07-19T14:16:03;31.20;1.00
13944;DHT22;7044;53.286;8.534;2022-07-19T14:18:31;31.00;1.00
13944;DHT22;7044;53.286;8.534;2022-07-19T14:20:58;30.90;1.00
13944;DHT22;7044;53.286;8.534;2022-07-19T14:23:25;30.80;1.00
13944;DHT22;7044;53.286;8.534;2022-07-19T14:25:52;30.90;1.00
13944;DHT22;7044;53.286;8.534;2022-07-19T14:28:19;31.00;1.00
13944;DHT22;7044;53.286;8.534;2022-07-19T14:30:46;30.80;1.00
13944;DHT22;7044;53.286;8.534;2022-07-19T14:33:12;30.70;1.00
13944;DHT22;7044;53.286;8.534;2022-07-19T14:35:41;30.70;1.00
13944;DHT22;7044;53.286;8.534;2022-07-19T14:38:08;30.90;1.00
13944;DHT22;7044;53.286;8.534;2022-07-19T14:40:35;29.60;1.00
13944;DHT22;7044;53.286;8.534;2022-07-19T14:43:02;30.80;1.00
13944;DHT22;7044;53.286;8.534;2022-07-19T14:45:29;30.80;1.00
13944;DHT22;7044;53.286;8.534;2022-07-19T14:47:56;30.80;1.00
13944;DHT22;7044;53.286;8.534;2022-07-19T14:50:23;31.00;1.00
13944;DHT22;7044;53.286;8.534;2022-07-19T14:52:51;31.50;1.00
13944;DHT22;7044;53.286;8.534;2022-07-19T14:55:18;31.10;1.00
13944;DHT22;7044;53.286;8.534;2022-07-19T14:57:45;31.00;1.00
13944;DHT22;7044;53.286;8.534;2022-07-19T15:00:12;30.80;1.00
13944;DHT22;7044;53.286;8.534;2022-07-19T15:02:39;31.10;1.00
13944;DHT22;7044;53.286;8.534;2022-07-19T15:05:07;31.30;1.00
13944;DHT22;7044;53.286;8.534;2022-07-19T15:07:34;31.20;1.00
13944;DHT22;7044;53.286;8.534;2022-07-19T15:10:03;31.20;1.00
13944;DHT22;7044;53.286;8.534;2022-07-19T15:12:30;31.20;1.00
13944;DHT22;7044;53.286;8.534;2022-07-19T15:14:56;31.10;1.00
13944;DHT22;7044;53.286;8.534;2022-07-19T15:17:23;31.30;1.00
13944;DHT22;7044;53.286;8.534;2022-07-19T15:19:50;26.90;1.00
13944;DHT22;7044;53.286;8.534;2022-07-19T15:22:18;31.50;1.00
13944;DHT22;7044;53.286;8.534;2022-07-19T15:24:45;31.40;1.00
13944;DHT22;7044;53.286;8.534;2022-07-19T15:27:14;31.30;1.00
13944;DHT22;7044;53.286;8.534;2022-07-19T15:29:41;31.30;1.00
13944;DHT22;7044;53.286;8.534;2022-07-19T15:32:09;31.30;1.00
13944;DHT22;7044;53.286;8.534;2022-07-19T15:34:37;31.30;1.00
13944;DHT22;7044;53.286;8.534;2022-07-19T15:37:05;31.50;1.00
13944;DHT22;7044;53.286;8.534;2022-07-19T15:39:32;31.30;1.00
13944;DHT22;7044;53.286;8.534;2022-07-19T15:41:58;31.30;1.00
13944;DHT22;7044;53.286;8.534;2022-07-19T15:44:27;31.30;1.00
13944;DHT22;7044;53.286;8.534;2022-07-19T15:46:54;31.30;1.00
13944;DHT22;7044;53.286;8.534;2022-07-19T15:49:21;31.40;1.00
13944;DHT22;7044;53.286;8.534;2022-07-19T15:51:48;31.40;1.00
13944;DHT22;7044;53.286;8.534;2022-07-19T15:54:14;31.40;1.00
13944;DHT22;7044;53.286;8.534;2022-07-19T15:56:41;31.20;1.00
13944;DHT22;7044;53.286;8.534;2022-07-19T15:59:08;31.20;1.00
13944;DHT22;7044;53.286;8.534;2022-07-19T16:01:36;31.30;1.00
13944;DHT22;7044;53.286;8.534;2022-07-19T16:04:03;31.40;1.00
13944;DHT22;7044;53.286;8.534;2022-07-19T16:06:30;31.40;1.00
13944;DHT22;7044;53.286;8.534;2022-07-19T16:08:57;31.30;1.00
13944;DHT22;7044;53.286;8.534;2022-07-19T16:11:24;31.30;1.00
13944;DHT22;7044;53.286;8.534;2022-07-19T16:16:18;31.20;1.00
13944;DHT22;7044;53.286;8.534;2022-07-19T16:18:47;31.30;1.00
13944;DHT22;7044;53.286;8.534;2022-07-19T16:23:41;31.20;1.00
13944;DHT22;7044;53.286;8.534;2022-07-19T16:26:08;31.30;1.00
13944;DHT22;7044;53.286;8.534;2022-07-19T16:28:35;31.50;1.00
13944;DHT22;7044;53.286;8.534;2022-07-19T16:31:02;31.60;1.00
13944;DHT22;7044;53.286;8.534;2022-07-19T16:35:57;31.50;1.00
13944;DHT22;7044;53.286;8.534;2022-07-19T16:38:24;31.30;1.00
13944;DHT22;7044;53.286;8.534;2022-07-19T16:40:51;31.40;1.00
13944;DHT22;7044;53.286;8.534;2022-07-19T16:43:18;31.30;1.00
13944;DHT22;7044;53.286;8.534;2022-07-19T16:45:44;31.20;1.00
13944;DHT22;7044;53.286;8.534;2022-07-19T16:48:11;31.10;1.00
13944;DHT22;7044;53.286;8.534;2022-07-19T16:50:39;31.10;1.00
13944;DHT22;7044;53.286;8.534;2022-07-19T16:53:08;31.20;1.00
13944;DHT22;7044;53.286;8.534;2022-07-19T16:55:35;31.30;1.00